createdAt,value
2023-05-10T00:01:29.601Z,7.49
2023-05-10T00:03:57.797Z,7.50
2023-05-10T00:06:26.082Z,7.45
2023-05-10T00:08:54.328Z,7.46
2023-05-10T00:11:23.121Z,7.47
2023-05-10T00:13:51.400Z,7.44
2023-05-10T00:16:19.458Z,7.43
2023-05-10T00:18:47.576Z,7.44
2023-05-10T00:21:17.681Z,7.43
2023-05-10T00:23:45.906Z,7.42
2023-05-10T00:26:13.887Z,7.39
2023-05-10T00:28:43.081Z,7.39
2023-05-10T00:31:11.463Z,7.37
2023-05-10T00:33:39.501Z,7.37
2023-05-10T00:36:08.510Z,7.35
2023-05-10T00:38:36.495Z,7.32
2023-05-10T00:41:05.069Z,7.27
2023-05-10T00:43:33.765Z,7.22
2023-05-10T00:46:01.999Z,7.17
2023-05-10T00:48:30.711Z,7.15
2023-05-10T00:50:58.773Z,7.13
2023-05-10T00:53:28.373Z,7.13
2023-05-10T00:55:58.193Z,7.11
2023-05-10T00:58:29.402Z,7.11
2023-05-10T01:00:58.817Z,7.07
2023-05-10T01:03:27.499Z,7.03
2023-05-10T01:05:56.299Z,7.00
2023-05-10T01:08:24.600Z,6.95
2023-05-10T01:10:54.170Z,6.92
2023-05-10T01:13:38.384Z,6.89
2023-05-10T01:16:07.901Z,6.87
2023-05-10T01:18:42.660Z,6.81
2023-05-10T01:21:16.593Z,6.76
2023-05-10T01:24:09.549Z,6.72
2023-05-10T01:27:25.401Z,6.64
2023-05-10T01:30:18.547Z,6.56
2023-05-10T01:33:08.329Z,6.47
2023-05-10T01:36:27.303Z,6.44
2023-05-10T01:39:25.589Z,6.39
2023-05-10T01:42:15.848Z,6.37
2023-05-10T01:44:59.006Z,6.39
2023-05-10T01:47:38.506Z,6.38
2023-05-10T01:50:16.284Z,6.37
2023-05-10T01:52:51.197Z,6.38
2023-05-10T01:55:24.441Z,6.39
2023-05-10T01:57:58.721Z,6.39
2023-05-10T02:00:28.908Z,6.39
2023-05-10T02:02:58.430Z,6.36
2023-05-10T02:05:28.845Z,6.33
2023-05-10T02:07:59.817Z,6.34
2023-05-10T02:10:29.700Z,6.33
2023-05-10T02:13:01.156Z,6.28
2023-05-10T02:15:31.046Z,6.27
2023-05-10T02:18:02.025Z,6.24
2023-05-10T02:20:32.381Z,6.17
2023-05-10T02:23:02.037Z,6.16
2023-05-10T02:25:33.269Z,6.12
2023-05-10T02:28:04.155Z,6.10
2023-05-10T02:30:34.640Z,6.09
2023-05-10T02:33:05.501Z,6.10
2023-05-10T02:35:35.016Z,6.09
2023-05-10T02:38:05.230Z,6.08
2023-05-10T02:40:34.984Z,6.07
2023-05-10T02:43:03.712Z,6.05
2023-05-10T02:45:34.741Z,6.05
2023-05-10T02:48:03.900Z,6.03
2023-05-10T02:50:34.535Z,6.00
2023-05-10T02:53:08.223Z,5.97
2023-05-10T02:55:43.136Z,5.92
2023-05-10T02:58:11.176Z,5.87
2023-05-10T03:00:39.324Z,5.82
2023-05-10T03:03:08.061Z,5.76
2023-05-10T03:05:36.184Z,5.68
2023-05-10T03:08:05.853Z,5.64
2023-05-10T03:10:39.247Z,5.58
2023-05-10T03:13:12.435Z,5.53
2023-05-10T03:15:43.649Z,5.51
2023-05-10T03:18:18.054Z,5.50
2023-05-10T03:20:50.026Z,5.51
2023-05-10T03:23:28.354Z,5.50
2023-05-10T03:25:56.743Z,5.51
2023-05-10T03:28:27.958Z,5.54
2023-05-10T03:30:57.752Z,5.55
2023-05-10T03:33:26.064Z,5.59
2023-05-10T03:35:54.763Z,5.63
2023-05-10T03:38:22.740Z,5.65
2023-05-10T03:40:51.018Z,5.67
2023-05-10T03:43:19.130Z,5.69
2023-05-10T03:45:47.837Z,5.70
2023-05-10T03:48:16.025Z,5.72
2023-05-10T03:50:44.380Z,5.74
2023-05-10T03:53:13.611Z,5.75
2023-05-10T03:55:41.797Z,5.80
2023-05-10T03:58:12.941Z,5.87
2023-05-10T04:00:47.061Z,5.97
2023-05-10T04:03:16.948Z,6.06
2023-05-10T04:05:45.156Z,6.16
2023-05-10T04:08:13.746Z,6.27
2023-05-10T04:10:42.121Z,6.35
2023-05-10T04:13:10.149Z,6.36
2023-05-10T04:15:38.565Z,6.44
2023-05-10T04:18:08.649Z,6.47
2023-05-10T04:20:37.000Z,6.44
2023-05-10T04:23:04.973Z,6.47
2023-05-10T04:25:36.065Z,6.41
2023-05-10T04:28:04.390Z,6.52
2023-05-10T04:30:32.455Z,6.60
2023-05-10T04:33:00.754Z,6.64
2023-05-10T04:35:29.525Z,6.71
2023-05-10T04:37:57.557Z,6.76
2023-05-10T04:40:25.796Z,6.86
2023-05-10T04:42:53.958Z,6.92
2023-05-10T04:45:23.614Z,6.90
2023-05-10T04:47:52.016Z,6.99
2023-05-10T04:50:20.538Z,7.11
2023-05-10T04:52:48.659Z,7.18
2023-05-10T04:55:17.134Z,7.25
2023-05-10T04:57:46.225Z,7.37
2023-05-10T05:00:15.413Z,7.53
2023-05-10T05:02:48.041Z,7.63
2023-05-10T05:05:16.542Z,7.64
2023-05-10T05:07:44.774Z,7.76
2023-05-10T05:10:13.072Z,7.78
2023-05-10T05:12:41.451Z,7.86
2023-05-10T05:15:10.811Z,7.89
2023-05-10T05:17:38.851Z,8.01
2023-05-10T05:20:07.665Z,8.07
2023-05-10T05:22:37.874Z,8.16
2023-05-10T05:25:07.128Z,8.23
2023-05-10T05:27:35.584Z,8.36
2023-05-10T05:30:06.112Z,8.47
2023-05-10T05:32:34.447Z,8.55
2023-05-10T05:35:03.238Z,8.66
2023-05-10T05:37:31.681Z,8.73
2023-05-10T05:40:02.876Z,8.84
2023-05-10T05:42:32.298Z,8.95
2023-05-10T05:45:00.756Z,9.09
2023-05-10T05:47:29.281Z,9.18
2023-05-10T05:49:59.504Z,9.34
2023-05-10T05:52:29.274Z,9.45
2023-05-10T05:54:58.237Z,9.56
2023-05-10T05:57:27.807Z,9.70
2023-05-10T05:59:55.829Z,9.80
2023-05-10T06:02:24.172Z,9.88
2023-05-10T06:04:52.669Z,9.95
2023-05-10T06:07:21.305Z,10.04
2023-05-10T06:09:50.654Z,10.09
2023-05-10T06:12:18.772Z,10.24
2023-05-10T06:14:47.285Z,10.27
2023-05-10T06:17:15.712Z,10.24
2023-05-10T06:19:45.938Z,10.26
2023-05-10T06:22:14.548Z,10.31
2023-05-10T06:24:44.690Z,10.46
2023-05-10T06:27:12.876Z,10.55
2023-05-10T06:29:41.360Z,10.54
2023-05-10T06:32:09.417Z,10.54
2023-05-10T06:34:43.116Z,10.43
2023-05-10T06:37:11.725Z,10.41
2023-05-10T06:39:39.853Z,10.42
2023-05-10T06:42:10.684Z,10.53
2023-05-10T06:44:39.838Z,10.55
2023-05-10T06:47:08.993Z,10.66
2023-05-10T06:49:48.208Z,10.81
2023-05-10T06:52:16.757Z,10.86
2023-05-10T06:54:45.509Z,10.94
2023-05-10T06:57:30.569Z,10.94
2023-05-10T07:00:00.745Z,11.03
2023-05-10T07:02:31.362Z,11.20
2023-05-10T07:05:02.362Z,11.37
2023-05-10T07:07:35.064Z,11.44
2023-05-10T07:10:04.452Z,11.57
2023-05-10T07:12:32.969Z,11.63
2023-05-10T07:15:02.598Z,11.62
2023-05-10T07:17:32.008Z,11.75
2023-05-10T07:20:01.970Z,11.87
2023-05-10T07:22:31.407Z,11.87
2023-05-10T07:24:59.849Z,12.01
2023-05-10T07:27:28.043Z,12.09
2023-05-10T07:29:57.669Z,12.11
2023-05-10T07:32:27.741Z,12.22
2023-05-10T07:34:56.877Z,12.36
2023-05-10T07:37:32.748Z,12.44
2023-05-10T07:42:49.532Z,12.55
2023-05-10T07:45:18.074Z,12.63
2023-05-10T07:47:46.784Z,12.68
2023-05-10T07:50:15.580Z,12.69
2023-05-10T07:52:44.033Z,12.91
2023-05-10T07:55:16.293Z,13.09
2023-05-10T07:57:58.539Z,13.07
2023-05-10T08:00:27.075Z,13.14
2023-05-10T08:02:59.523Z,13.10
2023-05-10T08:05:28.726Z,13.10
2023-05-10T08:07:56.904Z,13.07
2023-05-10T08:10:25.824Z,13.13
2023-05-10T08:12:55.035Z,13.19
2023-05-10T08:15:23.484Z,13.23
2023-05-10T08:17:55.934Z,13.26
2023-05-10T08:20:24.542Z,13.36
2023-05-10T08:22:55.597Z,13.33
2023-05-10T08:25:25.770Z,13.45
2023-05-10T08:27:54.626Z,13.72
2023-05-10T08:30:23.076Z,13.72
2023-05-10T08:32:52.350Z,13.71
2023-05-10T08:35:20.790Z,13.90
2023-05-10T08:37:48.987Z,13.98
2023-05-10T08:40:17.405Z,14.00
2023-05-10T08:42:58.967Z,13.99
2023-05-10T08:45:32.270Z,14.03
2023-05-10T08:48:07.952Z,14.28
2023-05-10T08:50:44.027Z,14.53
2023-05-10T08:53:14.656Z,14.73
2023-05-10T08:55:44.025Z,14.65
2023-05-10T08:58:12.244Z,14.96
2023-05-10T09:00:41.447Z,15.16
2023-05-10T09:03:11.779Z,15.14
2023-05-10T09:05:40.254Z,15.11
2023-05-10T09:08:09.820Z,15.26
2023-05-10T09:10:41.275Z,15.53
2023-05-10T09:13:13.173Z,15.64
2023-05-10T09:15:47.843Z,15.43
2023-05-10T09:18:17.200Z,15.34
2023-05-10T09:20:45.986Z,15.72
2023-05-10T09:23:14.624Z,15.84
2023-05-10T09:26:24.711Z,16.01
2023-05-10T09:29:51.530Z,16.54
2023-05-10T09:32:47.197Z,16.83
2023-05-10T09:35:20.262Z,16.95
2023-05-10T09:38:08.402Z,17.04
2023-05-10T09:40:37.579Z,17.06
2023-05-10T09:43:08.765Z,17.49
2023-05-10T09:45:38.847Z,18.05
2023-05-10T09:48:08.707Z,17.88
2023-05-10T09:50:37.745Z,18.32
2023-05-10T09:53:06.987Z,18.15
2023-05-10T09:55:46.321Z,18.34
2023-05-10T09:58:15.940Z,18.37
2023-05-10T10:00:49.019Z,18.23
2023-05-10T10:03:27.778Z,17.89
2023-05-10T10:05:58.003Z,17.69
2023-05-10T10:08:28.076Z,17.77
2023-05-10T10:10:57.291Z,17.92
2023-05-10T10:13:26.512Z,17.88
2023-05-10T10:15:56.201Z,17.81
2023-05-10T10:18:30.951Z,17.71
2023-05-10T10:21:00.510Z,17.46
2023-05-10T10:23:31.399Z,17.76
2023-05-10T10:26:04.195Z,17.94
2023-05-10T10:29:07.464Z,18.32
2023-05-10T10:32:05.756Z,18.81
2023-05-10T10:34:34.947Z,19.00
2023-05-10T10:37:08.104Z,19.56
2023-05-10T10:39:37.978Z,19.80
2023-05-10T10:42:07.170Z,19.53
2023-05-10T10:44:38.204Z,19.40
2023-05-10T10:47:10.670Z,19.07
2023-05-10T10:49:43.594Z,19.44
2023-05-10T10:52:43.960Z,20.24
2023-05-10T10:55:20.628Z,21.09
2023-05-10T10:58:01.980Z,21.27
2023-05-10T11:00:39.447Z,20.66
2023-05-10T11:03:20.266Z,20.61
2023-05-10T11:06:10.452Z,20.30
2023-05-10T11:08:53.036Z,19.84
2023-05-10T11:11:36.694Z,19.85
2023-05-10T11:14:25.837Z,19.47
2023-05-10T11:16:58.338Z,19.16
2023-05-10T11:19:31.258Z,19.40
2023-05-10T11:22:05.663Z,19.52
2023-05-10T11:24:36.176Z,20.47
2023-05-10T11:27:07.671Z,20.34
2023-05-10T11:29:37.573Z,20.46
2023-05-10T11:32:09.235Z,20.17
2023-05-10T11:34:37.506Z,20.31
2023-05-10T11:37:06.062Z,20.24
2023-05-10T11:39:35.200Z,20.24
2023-05-10T11:42:13.546Z,19.89
2023-05-10T11:44:43.759Z,20.62
2023-05-10T11:47:17.561Z,20.94
2023-05-10T11:49:49.742Z,21.29
2023-05-10T11:52:20.244Z,21.02
2023-05-10T11:54:55.808Z,20.46
2023-05-10T11:57:32.364Z,20.78
2023-05-10T12:00:06.443Z,20.74
2023-05-10T12:02:36.587Z,21.21
2023-05-10T12:05:06.520Z,21.51
2023-05-10T12:07:36.353Z,22.23
2023-05-10T12:10:16.598Z,22.88
2023-05-10T12:12:49.651Z,23.44
2023-05-10T12:15:26.166Z,23.00
2023-05-10T12:17:56.576Z,23.57
2023-05-10T12:20:31.212Z,23.73
2023-05-10T12:23:00.944Z,23.80
2023-05-10T12:25:39.268Z,24.01
2023-05-10T12:28:11.910Z,23.70
2023-05-10T12:30:40.565Z,23.88
2023-05-10T12:33:15.677Z,24.45
2023-05-10T12:35:49.753Z,24.59
2023-05-10T12:38:35.540Z,25.16
2023-05-10T12:41:05.897Z,23.80
2023-05-10T12:43:52.656Z,23.45
2023-05-10T12:46:48.122Z,23.83
2023-05-10T12:49:21.426Z,23.04
2023-05-10T12:51:51.093Z,22.97
2023-05-10T12:54:20.045Z,23.56
2023-05-10T12:56:49.167Z,24.43
2023-05-10T12:59:24.379Z,23.83
2023-05-10T13:01:53.000Z,23.02
2023-05-10T13:04:21.750Z,22.57
2023-05-10T13:06:51.618Z,22.03
2023-05-10T13:09:21.677Z,22.48
2023-05-10T13:11:50.416Z,22.36
2023-05-10T13:14:21.677Z,22.58
2023-05-10T13:16:50.034Z,22.72
2023-05-10T13:19:21.734Z,22.71
2023-05-10T13:21:51.475Z,22.90
2023-05-10T13:24:20.103Z,23.08
2023-05-10T13:26:49.803Z,23.79
2023-05-10T13:29:20.915Z,24.69
2023-05-10T13:31:49.532Z,23.38
2023-05-10T13:34:21.712Z,23.94
2023-05-10T13:36:51.022Z,24.20
2023-05-10T13:39:19.517Z,23.92
2023-05-10T13:41:50.322Z,24.08
2023-05-10T13:44:21.884Z,24.28
2023-05-10T13:46:50.957Z,23.73
2023-05-10T13:49:21.267Z,23.38
2023-05-10T13:51:50.680Z,23.10
2023-05-10T13:54:22.810Z,22.64
2023-05-10T13:56:51.851Z,22.60
2023-05-10T13:59:23.157Z,22.37
2023-05-10T14:01:52.350Z,22.22
2023-05-10T14:04:20.881Z,23.82
2023-05-10T14:06:49.313Z,24.42
2023-05-10T14:09:18.214Z,24.99
2023-05-10T14:11:47.013Z,25.80
2023-05-10T14:14:15.399Z,26.17
2023-05-10T14:16:48.028Z,26.65
2023-05-10T14:19:16.451Z,27.37
2023-05-10T14:21:54.332Z,27.75
2023-05-10T14:24:22.652Z,27.39
2023-05-10T14:26:54.688Z,27.29
2023-05-10T14:29:23.352Z,27.08
2023-05-10T14:31:52.811Z,27.79
2023-05-10T14:34:21.366Z,28.22
2023-05-10T14:36:49.705Z,28.65
2023-05-10T14:39:18.416Z,28.34
2023-05-10T14:41:50.963Z,28.54
2023-05-10T14:44:20.026Z,28.25
2023-05-10T14:46:50.090Z,27.82
2023-05-10T14:49:18.387Z,28.26
2023-05-10T14:51:47.349Z,27.99
2023-05-10T14:54:16.017Z,28.24
2023-05-10T14:56:46.692Z,27.40
2023-05-10T14:59:14.922Z,26.02
2023-05-10T15:01:45.456Z,25.45
2023-05-10T15:04:14.537Z,24.77
2023-05-10T15:06:44.101Z,24.02
2023-05-10T15:09:12.366Z,23.49
2023-05-10T15:11:40.537Z,22.82
2023-05-10T15:14:08.665Z,23.98
2023-05-10T15:16:37.438Z,25.45
2023-05-10T15:19:05.714Z,26.04
2023-05-10T15:21:40.071Z,26.48
2023-05-10T15:24:11.331Z,26.74
2023-05-10T15:26:39.579Z,26.45
2023-05-10T15:29:21.406Z,25.93
2023-05-10T15:31:54.905Z,25.70
2023-05-10T15:34:24.181Z,25.95
2023-05-10T15:36:53.095Z,26.48
2023-05-10T15:39:21.371Z,27.30
2023-05-10T15:41:50.193Z,27.41
2023-05-10T15:44:19.730Z,26.93
2023-05-10T15:46:48.103Z,27.41
2023-05-10T15:49:17.401Z,27.82
2023-05-10T15:51:45.468Z,28.09
2023-05-10T15:54:15.203Z,28.11
2023-05-10T15:56:44.382Z,28.09
2023-05-10T15:59:13.576Z,27.61
2023-05-10T16:01:42.261Z,28.04
2023-05-10T16:04:12.568Z,28.39
2023-05-10T16:06:40.833Z,27.68
2023-05-10T16:09:08.997Z,27.16
2023-05-10T16:11:37.522Z,27.48
2023-05-10T16:14:07.118Z,27.77
2023-05-10T16:16:35.754Z,27.68
2023-05-10T16:19:04.732Z,27.08
2023-05-10T16:21:34.074Z,25.81
2023-05-10T16:24:03.470Z,25.50
2023-05-10T16:26:41.017Z,25.67
2023-05-10T16:29:10.621Z,25.50
2023-05-10T16:31:39.263Z,25.48
2023-05-10T16:34:07.484Z,25.75
2023-05-10T16:36:35.589Z,25.62
2023-05-10T16:39:05.070Z,25.02
2023-05-10T16:41:34.456Z,24.24
2023-05-10T16:44:03.760Z,24.26
2023-05-10T16:46:33.135Z,23.90
2023-05-10T16:49:01.880Z,22.82
2023-05-10T16:51:33.081Z,22.14
2023-05-10T16:54:02.128Z,21.37
2023-05-10T16:56:30.436Z,21.00
2023-05-10T16:58:58.769Z,20.51
2023-05-10T17:01:27.577Z,20.63
2023-05-10T17:03:56.683Z,21.14
2023-05-10T17:06:25.338Z,21.39
2023-05-10T17:08:54.750Z,21.34
2023-05-10T17:11:22.835Z,20.96
2023-05-10T17:13:52.467Z,20.61
2023-05-10T17:16:21.504Z,20.17
2023-05-10T17:18:49.825Z,19.65
2023-05-10T17:21:21.607Z,18.83
2023-05-10T17:23:51.700Z,18.31
2023-05-10T17:26:21.558Z,18.01
2023-05-10T17:28:49.561Z,17.69
2023-05-10T17:31:19.135Z,17.39
2023-05-10T17:33:47.453Z,17.14
2023-05-10T17:36:15.706Z,16.94
2023-05-10T17:38:43.847Z,16.79
2023-05-10T17:41:14.436Z,16.55
2023-05-10T17:43:43.635Z,16.30
2023-05-10T17:46:13.059Z,16.04
2023-05-10T17:48:42.015Z,15.85
2023-05-10T17:51:18.389Z,15.69
2023-05-10T17:53:48.168Z,15.51
2023-05-10T17:56:16.306Z,15.36
2023-05-10T17:58:44.561Z,15.20
2023-05-10T18:01:13.394Z,15.00
2023-05-10T18:03:43.190Z,14.88
2023-05-10T18:06:11.325Z,14.67
2023-05-10T18:08:39.465Z,14.53
2023-05-10T18:11:09.760Z,14.25
2023-05-10T18:13:38.505Z,14.17
2023-05-10T18:16:10.182Z,13.99
2023-05-10T18:18:39.627Z,13.88
2023-05-10T18:21:07.728Z,13.76
2023-05-10T18:23:35.912Z,13.63
2023-05-10T18:26:04.124Z,13.51
2023-05-10T18:28:32.396Z,13.40
2023-05-10T18:31:01.007Z,13.30
2023-05-10T18:33:29.243Z,13.18
2023-05-10T18:35:57.346Z,13.10
2023-05-10T18:38:25.518Z,13.02
2023-05-10T18:40:55.692Z,12.94
2023-05-10T18:43:23.974Z,12.87
2023-05-10T18:45:52.971Z,12.80
2023-05-10T18:48:22.904Z,12.71
2023-05-10T18:50:51.272Z,12.65
2023-05-10T18:53:19.431Z,12.66
2023-05-10T18:55:55.824Z,12.58
2023-05-10T18:58:24.122Z,12.49
2023-05-10T19:00:52.653Z,12.35
2023-05-10T19:03:22.062Z,12.36
2023-05-10T19:05:50.755Z,12.33
2023-05-10T19:08:18.834Z,12.21
2023-05-10T19:10:47.240Z,12.15
2023-05-10T19:13:15.551Z,12.05
2023-05-10T19:15:44.270Z,12.04
2023-05-10T19:18:13.821Z,12.01
2023-05-10T19:20:42.544Z,11.93
2023-05-10T19:23:10.796Z,11.87
2023-05-10T19:25:39.905Z,11.82
2023-05-10T19:28:11.812Z,11.78
2023-05-10T19:30:40.297Z,11.72
2023-05-10T19:33:10.188Z,11.63
2023-05-10T19:35:38.406Z,11.57
2023-05-10T19:38:07.016Z,11.55
2023-05-10T19:40:36.247Z,11.53
2023-05-10T19:43:04.792Z,11.49
2023-05-10T19:45:32.963Z,11.43
2023-05-10T19:48:01.489Z,11.39
2023-05-10T19:50:29.583Z,11.35
2023-05-10T19:52:58.537Z,11.33
2023-05-10T19:55:31.327Z,11.28
2023-05-10T19:58:02.764Z,11.26
2023-05-10T20:00:31.712Z,11.20
2023-05-10T20:02:59.951Z,11.25
2023-05-10T20:05:31.307Z,11.24
2023-05-10T20:07:59.347Z,11.21
2023-05-10T20:10:27.406Z,11.18
2023-05-10T20:12:55.585Z,11.13
2023-05-10T20:15:23.757Z,11.07
2023-05-10T20:17:53.720Z,11.01
2023-05-10T20:20:22.365Z,10.98
2023-05-10T20:22:50.694Z,10.91
2023-05-10T20:25:19.092Z,10.85
2023-05-10T20:27:47.213Z,10.82
2023-05-10T20:30:16.378Z,10.81
2023-05-10T20:32:44.855Z,10.81
2023-05-10T20:35:12.997Z,10.75
2023-05-10T20:37:42.361Z,10.77
2023-05-10T20:40:11.169Z,10.75
2023-05-10T20:42:39.326Z,10.70
2023-05-10T20:45:07.868Z,10.69
2023-05-10T20:47:36.182Z,10.64
2023-05-10T20:50:05.938Z,10.57
2023-05-10T20:52:33.974Z,10.50
2023-05-10T20:55:02.164Z,10.45
2023-05-10T20:57:32.416Z,10.43
2023-05-10T21:00:01.882Z,10.44
2023-05-10T21:02:30.059Z,10.45
2023-05-10T21:04:58.328Z,10.44
2023-05-10T21:07:26.443Z,10.42
2023-05-10T21:09:54.350Z,10.37
2023-05-10T21:12:22.349Z,10.33
2023-05-10T21:14:50.382Z,10.27
2023-05-10T21:17:20.131Z,10.23
2023-05-10T21:19:49.366Z,10.16
2023-05-10T21:22:17.580Z,10.08
2023-05-10T21:24:45.718Z,10.01
2023-05-10T21:27:14.069Z,9.93
2023-05-10T21:29:42.100Z,9.89
2023-05-10T21:32:10.606Z,9.83
2023-05-10T21:34:38.663Z,9.82
2023-05-10T21:37:07.496Z,9.77
2023-05-10T21:39:36.048Z,9.73
2023-05-10T21:42:04.287Z,9.67
2023-05-10T21:44:32.649Z,9.59
2023-05-10T21:47:00.898Z,9.51
2023-05-10T21:49:28.890Z,9.42
2023-05-10T21:51:57.053Z,9.34
2023-05-10T21:54:25.322Z,9.30
2023-05-10T21:56:53.705Z,9.28
2023-05-10T21:59:21.798Z,9.40
2023-05-10T22:01:50.818Z,9.50
2023-05-10T22:04:19.363Z,9.50
2023-05-10T22:06:47.982Z,9.49
2023-05-10T22:09:16.506Z,9.51
2023-05-10T22:11:44.547Z,9.58
2023-05-10T22:14:12.628Z,9.63
2023-05-10T22:16:40.693Z,9.59
2023-05-10T22:19:09.806Z,9.52
2023-05-10T22:21:38.009Z,9.42
2023-05-10T22:24:06.186Z,9.35
2023-05-10T22:26:36.241Z,9.27
2023-05-10T22:29:04.497Z,9.18
2023-05-10T22:31:32.809Z,9.10
2023-05-10T22:34:00.845Z,9.03
2023-05-10T22:36:30.152Z,8.99
2023-05-10T22:38:58.607Z,8.93
2023-05-10T22:41:26.706Z,8.88
2023-05-10T22:43:54.801Z,8.84
2023-05-10T22:46:23.827Z,8.79
2023-05-10T22:48:52.488Z,8.74
2023-05-10T22:51:21.319Z,8.69
2023-05-10T22:53:49.388Z,8.65
2023-05-10T22:56:17.463Z,8.62
2023-05-10T22:58:45.826Z,8.59
2023-05-10T23:01:13.943Z,8.55
2023-05-10T23:03:42.457Z,8.49
2023-05-10T23:06:11.424Z,8.43
2023-05-10T23:08:39.861Z,8.37
2023-05-10T23:11:08.249Z,8.32
2023-05-10T23:13:36.565Z,8.30
2023-05-10T23:16:06.562Z,8.24
2023-05-10T23:18:34.783Z,8.19
2023-05-10T23:21:02.980Z,8.14
2023-05-10T23:23:32.768Z,8.10
2023-05-10T23:26:01.577Z,8.05
2023-05-10T23:28:29.515Z,8.00
2023-05-10T23:30:58.842Z,7.97
2023-05-10T23:33:26.922Z,7.93
2023-05-10T23:35:55.251Z,7.87
2023-05-10T23:38:23.363Z,7.84
2023-05-10T23:40:51.598Z,7.81
2023-05-10T23:43:19.909Z,7.80
2023-05-10T23:45:56.665Z,7.78
2023-05-10T23:48:25.041Z,7.77
2023-05-10T23:50:53.214Z,7.76
2023-05-10T23:53:21.428Z,7.74
2023-05-10T23:55:50.414Z,7.71
2023-05-10T23:58:18.314Z,7.67
